sensor_id;sensor_type;location;lat;lon;timestamp;P1;durP1;ratioP1;P2;durP2;ratioP2
16436;SDS011;8328;52.206;21.006;2022-09-09T00:03:43;9.57;;;5.83;;
16436;SDS011;8328;52.206;21.006;2022-09-09T00:06:23;9.07;;;5.90;;
16436;SDS011;8328;52.206;21.006;2022-09-09T00:14:32;10.73;;;6.37;;
16436;SDS011;8328;52.206;21.006;2022-09-09T00:17:14;9.37;;;6.23;;
16436;SDS011;8328;52.206;21.006;2022-09-09T00:19:47;9.70;;;6.70;;
16436;SDS011;8328;52.206;21.006;2022-09-09T00:22:25;9.33;;;6.97;;
16436;SDS011;8328;52.206;21.006;2022-09-09T00:24:56;9.77;;;6.87;;
16436;SDS011;8328;52.206;21.006;2022-09-09T00:27:44;11.50;;;6.67;;
16436;SDS011;8328;52.206;21.006;2022-09-09T00:30:21;9.63;;;6.20;;
16436;SDS011;8328;52.206;21.006;2022-09-09T00:32:50;11.03;;;6.93;;
16436;SDS011;8328;52.206;21.006;2022-09-09T00:35:24;9.27;;;6.43;;
16436;SDS011;8328;52.206;21.006;2022-09-09T00:38:03;10.50;;;6.93;;
16436;SDS011;8328;52.206;21.006;2022-09-09T00:40:52;9.87;;;6.97;;
16436;SDS011;8328;52.206;21.006;2022-09-09T00:43:40;10.77;;;6.90;;
16436;SDS011;8328;52.206;21.006;2022-09-09T00:52:03;11.00;;;7.50;;
16436;SDS011;8328;52.206;21.006;2022-09-09T00:57:51;10.80;;;7.90;;
16436;SDS011;8328;52.206;21.006;2022-09-09T01:00:22;12.93;;;8.10;;
16436;SDS011;8328;52.206;21.006;2022-09-09T01:08:25;12.77;;;8.37;;
16436;SDS011;8328;52.206;21.006;2022-09-09T01:11:04;12.63;;;8.33;;
16436;SDS011;8328;52.206;21.006;2022-09-09T01:13:35;17.60;;;9.17;;
16436;SDS011;8328;52.206;21.006;2022-09-09T01:16:03;12.63;;;8.87;;
16436;SDS011;8328;52.206;21.006;2022-09-09T01:18:32;11.40;;;7.80;;
16436;SDS011;8328;52.206;21.006;2022-09-09T01:21:17;12.20;;;7.73;;
16436;SDS011;8328;52.206;21.006;2022-09-09T01:26:34;12.07;;;8.00;;
16436;SDS011;8328;52.206;21.006;2022-09-09T01:29:12;10.07;;;8.27;;
16436;SDS011;8328;52.206;21.006;2022-09-09T01:32:00;15.03;;;8.30;;
16436;SDS011;8328;52.206;21.006;2022-09-09T01:34:31;11.93;;;8.13;;
16436;SDS011;8328;52.206;21.006;2022-09-09T01:37:05;14.10;;;9.00;;
16436;SDS011;8328;52.206;21.006;2022-09-09T01:39:34;10.63;;;7.83;;
16436;SDS011;8328;52.206;21.006;2022-09-09T01:42:03;10.73;;;7.83;;
16436;SDS011;8328;52.206;21.006;2022-09-09T01:44:31;11.87;;;8.77;;
16436;SDS011;8328;52.206;21.006;2022-09-09T01:46:58;12.37;;;8.37;;
16436;SDS011;8328;52.206;21.006;2022-09-09T01:49:24;11.87;;;8.57;;
16436;SDS011;8328;52.206;21.006;2022-09-09T01:51:51;11.50;;;8.37;;
16436;SDS011;8328;52.206;21.006;2022-09-09T01:54:20;12.63;;;8.93;;
16436;SDS011;8328;52.206;21.006;2022-09-09T01:59:48;11.50;;;7.63;;
16436;SDS011;8328;52.206;21.006;2022-09-09T02:02:43;12.67;;;8.33;;
16436;SDS011;8328;52.206;21.006;2022-09-09T02:05:25;12.67;;;7.97;;
16436;SDS011;8328;52.206;21.006;2022-09-09T02:08:06;11.27;;;8.20;;
16436;SDS011;8328;52.206;21.006;2022-09-09T02:13:11;11.30;;;8.40;;
16436;SDS011;8328;52.206;21.006;2022-09-09T02:15:43;12.53;;;8.20;;
16436;SDS011;8328;52.206;21.006;2022-09-09T02:18:11;12.53;;;8.43;;
16436;SDS011;8328;52.206;21.006;2022-09-09T02:20:39;13.10;;;9.60;;
16436;SDS011;8328;52.206;21.006;2022-09-09T02:23:07;13.00;;;8.93;;
16436;SDS011;8328;52.206;21.006;2022-09-09T02:25:35;13.77;;;8.10;;
16436;SDS011;8328;52.206;21.006;2022-09-09T02:28:03;13.00;;;8.53;;
16436;SDS011;8328;52.206;21.006;2022-09-09T02:30:33;13.40;;;8.97;;
16436;SDS011;8328;52.206;21.006;2022-09-09T02:33:03;12.50;;;9.03;;
16436;SDS011;8328;52.206;21.006;2022-09-09T02:35:32;13.63;;;9.43;;
16436;SDS011;8328;52.206;21.006;2022-09-09T02:38:04;13.90;;;8.87;;
16436;SDS011;8328;52.206;21.006;2022-09-09T02:40:33;14.17;;;9.07;;
16436;SDS011;8328;52.206;21.006;2022-09-09T02:42:59;12.87;;;9.07;;
16436;SDS011;8328;52.206;21.006;2022-09-09T02:45:26;13.63;;;8.73;;
16436;SDS011;8328;52.206;21.006;2022-09-09T02:53:20;13.40;;;9.00;;
16436;SDS011;8328;52.206;21.006;2022-09-09T02:56:20;11.43;;;8.93;;
16436;SDS011;8328;52.206;21.006;2022-09-09T02:58:50;12.73;;;9.17;;
16436;SDS011;8328;52.206;21.006;2022-09-09T03:01:16;13.43;;;8.90;;
16436;SDS011;8328;52.206;21.006;2022-09-09T03:03:43;11.77;;;8.63;;
16436;SDS011;8328;52.206;21.006;2022-09-09T03:06:09;14.33;;;9.17;;
16436;SDS011;8328;52.206;21.006;2022-09-09T03:08:37;11.93;;;9.23;;
16436;SDS011;8328;52.206;21.006;2022-09-09T03:11:03;14.07;;;9.07;;
16436;SDS011;8328;52.206;21.006;2022-09-09T03:13:29;10.93;;;8.67;;
16436;SDS011;8328;52.206;21.006;2022-09-09T03:15:55;13.43;;;8.80;;
16436;SDS011;8328;52.206;21.006;2022-09-09T03:18:20;12.80;;;8.93;;
16436;SDS011;8328;52.206;21.006;2022-09-09T03:20:46;11.40;;;8.67;;
16436;SDS011;8328;52.206;21.006;2022-09-09T03:23:16;11.17;;;8.77;;
16436;SDS011;8328;52.206;21.006;2022-09-09T03:25:51;12.47;;;8.83;;
16436;SDS011;8328;52.206;21.006;2022-09-09T03:28:18;13.10;;;9.50;;
16436;SDS011;8328;52.206;21.006;2022-09-09T03:30:45;16.03;;;9.73;;
16436;SDS011;8328;52.206;21.006;2022-09-09T03:33:11;10.23;;;8.70;;
16436;SDS011;8328;52.206;21.006;2022-09-09T03:35:37;9.67;;;8.60;;
16436;SDS011;8328;52.206;21.006;2022-09-09T03:38:04;12.90;;;8.97;;
16436;SDS011;8328;52.206;21.006;2022-09-09T03:40:30;12.67;;;9.40;;
16436;SDS011;8328;52.206;21.006;2022-09-09T03:42:56;10.73;;;9.43;;
16436;SDS011;8328;52.206;21.006;2022-09-09T03:45:21;10.90;;;9.20;;
16436;SDS011;8328;52.206;21.006;2022-09-09T03:47:47;11.20;;;8.87;;
16436;SDS011;8328;52.206;21.006;2022-09-09T03:50:14;10.67;;;8.53;;
16436;SDS011;8328;52.206;21.006;2022-09-09T03:52:40;11.03;;;8.63;;
16436;SDS011;8328;52.206;21.006;2022-09-09T03:55:07;11.03;;;8.70;;
16436;SDS011;8328;52.206;21.006;2022-09-09T03:57:33;10.00;;;7.90;;
16436;SDS011;8328;52.206;21.006;2022-09-09T04:00:04;11.10;;;7.80;;
16436;SDS011;8328;52.206;21.006;2022-09-09T04:02:31;13.13;;;8.80;;
16436;SDS011;8328;52.206;21.006;2022-09-09T04:04:57;11.77;;;8.63;;
16436;SDS011;8328;52.206;21.006;2022-09-09T04:07:23;12.23;;;8.27;;
16436;SDS011;8328;52.206;21.006;2022-09-09T04:09:50;9.80;;;8.10;;
16436;SDS011;8328;52.206;21.006;2022-09-09T04:12:16;11.20;;;8.33;;
16436;SDS011;8328;52.206;21.006;2022-09-09T04:14:42;12.63;;;9.20;;
16436;SDS011;8328;52.206;21.006;2022-09-09T04:17:08;10.10;;;7.83;;
16436;SDS011;8328;52.206;21.006;2022-09-09T04:19:34;11.80;;;8.63;;
16436;SDS011;8328;52.206;21.006;2022-09-09T04:22:00;12.90;;;8.97;;
16436;SDS011;8328;52.206;21.006;2022-09-09T04:24:26;10.37;;;8.57;;
16436;SDS011;8328;52.206;21.006;2022-09-09T04:26:52;9.73;;;8.27;;
16436;SDS011;8328;52.206;21.006;2022-09-09T04:29:18;9.80;;;8.03;;
16436;SDS011;8328;52.206;21.006;2022-09-09T04:31:44;10.90;;;8.03;;
16436;SDS011;8328;52.206;21.006;2022-09-09T04:34:09;10.17;;;7.83;;
16436;SDS011;8328;52.206;21.006;2022-09-09T04:36:35;9.40;;;7.70;;
16436;SDS011;8328;52.206;21.006;2022-09-09T04:39:01;9.97;;;8.07;;
16436;SDS011;8328;52.206;21.006;2022-09-09T04:41:27;9.17;;;6.83;;
16436;SDS011;8328;52.206;21.006;2022-09-09T04:43:53;10.40;;;7.50;;
16436;SDS011;8328;52.206;21.006;2022-09-09T04:46:20;10.03;;;7.53;;
16436;SDS011;8328;52.206;21.006;2022-09-09T04:48:48;8.47;;;7.30;;
16436;SDS011;8328;52.206;21.006;2022-09-09T04:51:14;11.27;;;6.80;;
16436;SDS011;8328;52.206;21.006;2022-09-09T04:53:40;8.20;;;6.90;;
16436;SDS011;8328;52.206;21.006;2022-09-09T04:58:35;8.10;;;6.87;;
16436;SDS011;8328;52.206;21.006;2022-09-09T05:01:06;9.60;;;6.37;;
16436;SDS011;8328;52.206;21.006;2022-09-09T05:03:33;10.37;;;7.23;;
16436;SDS011;8328;52.206;21.006;2022-09-09T05:06:06;8.33;;;6.33;;
16436;SDS011;8328;52.206;21.006;2022-09-09T05:08:40;7.07;;;6.37;;
16436;SDS011;8328;52.206;21.006;2022-09-09T05:11:40;7.73;;;6.53;;
16436;SDS011;8328;52.206;21.006;2022-09-09T05:14:01;9.23;;;7.10;;
16436;SDS011;8328;52.206;21.006;2022-09-09T05:16:28;6.83;;;5.90;;
16436;SDS011;8328;52.206;21.006;2022-09-09T05:18:54;8.60;;;6.20;;
16436;SDS011;8328;52.206;21.006;2022-09-09T05:21:21;7.60;;;6.50;;
16436;SDS011;8328;52.206;21.006;2022-09-09T05:23:48;7.17;;;6.47;;
16436;SDS011;8328;52.206;21.006;2022-09-09T05:26:16;11.50;;;7.40;;
16436;SDS011;8328;52.206;21.006;2022-09-09T05:28:42;8.63;;;6.30;;
16436;SDS011;8328;52.206;21.006;2022-09-09T05:31:09;6.83;;;6.13;;
16436;SDS011;8328;52.206;21.006;2022-09-09T05:33:39;8.40;;;6.77;;
16436;SDS011;8328;52.206;21.006;2022-09-09T05:36:08;8.53;;;6.00;;
16436;SDS011;8328;52.206;21.006;2022-09-09T05:38:38;7.90;;;6.10;;
16436;SDS011;8328;52.206;21.006;2022-09-09T05:41:06;11.53;;;8.93;;
16436;SDS011;8328;52.206;21.006;2022-09-09T05:43:32;8.80;;;6.77;;
16436;SDS011;8328;52.206;21.006;2022-09-09T05:46:17;11.67;;;10.43;;
16436;SDS011;8328;52.206;21.006;2022-09-09T05:48:45;10.87;;;9.37;;
16436;SDS011;8328;52.206;21.006;2022-09-09T05:51:13;11.60;;;10.20;;
16436;SDS011;8328;52.206;21.006;2022-09-09T05:53:41;7.77;;;6.73;;
16436;SDS011;8328;52.206;21.006;2022-09-09T05:56:11;9.50;;;6.60;;
16436;SDS011;8328;52.206;21.006;2022-09-09T05:58:42;7.80;;;6.23;;
16436;SDS011;8328;52.206;21.006;2022-09-09T06:01:12;9.07;;;6.43;;
16436;SDS011;8328;52.206;21.006;2022-09-09T06:03:40;7.10;;;6.10;;
16436;SDS011;8328;52.206;21.006;2022-09-09T06:06:08;7.50;;;6.10;;
16436;SDS011;8328;52.206;21.006;2022-09-09T06:08:36;9.23;;;7.50;;
16436;SDS011;8328;52.206;21.006;2022-09-09T06:13:34;8.53;;;6.33;;
16436;SDS011;8328;52.206;21.006;2022-09-09T06:16:02;7.20;;;5.97;;
16436;SDS011;8328;52.206;21.006;2022-09-09T06:18:29;8.50;;;7.57;;
16436;SDS011;8328;52.206;21.006;2022-09-09T06:20:55;7.77;;;6.27;;
16436;SDS011;8328;52.206;21.006;2022-09-09T06:23:23;7.83;;;6.23;;
16436;SDS011;8328;52.206;21.006;2022-09-09T06:25:50;9.33;;;6.77;;
16436;SDS011;8328;52.206;21.006;2022-09-09T06:28:16;7.57;;;6.53;;
16436;SDS011;8328;52.206;21.006;2022-09-09T06:30:42;8.70;;;7.63;;
16436;SDS011;8328;52.206;21.006;2022-09-09T06:33:09;7.37;;;6.57;;
16436;SDS011;8328;52.206;21.006;2022-09-09T06:35:35;7.40;;;6.53;;
16436;SDS011;8328;52.206;21.006;2022-09-09T06:38:01;7.20;;;6.50;;
16436;SDS011;8328;52.206;21.006;2022-09-09T06:40:28;8.13;;;6.33;;
16436;SDS011;8328;52.206;21.006;2022-09-09T06:42:58;11.47;;;7.23;;
16436;SDS011;8328;52.206;21.006;2022-09-09T06:45:25;9.70;;;8.50;;
16436;SDS011;8328;52.206;21.006;2022-09-09T06:47:54;8.83;;;7.37;;
16436;SDS011;8328;52.206;21.006;2022-09-09T06:50:21;9.17;;;7.40;;
16436;SDS011;8328;52.206;21.006;2022-09-09T06:52:46;9.20;;;7.93;;
16436;SDS011;8328;52.206;21.006;2022-09-09T06:55:16;8.63;;;6.73;;
16436;SDS011;8328;52.206;21.006;2022-09-09T06:57:43;8.40;;;7.60;;
16436;SDS011;8328;52.206;21.006;2022-09-09T07:00:09;7.47;;;6.67;;
16436;SDS011;8328;52.206;21.006;2022-09-09T07:02:36;8.57;;;7.43;;
16436;SDS011;8328;52.206;21.006;2022-09-09T07:05:04;10.07;;;7.40;;
16436;SDS011;8328;52.206;21.006;2022-09-09T07:07:30;8.83;;;7.40;;
16436;SDS011;8328;52.206;21.006;2022-09-09T07:09:56;9.50;;;7.80;;
16436;SDS011;8328;52.206;21.006;2022-09-09T07:12:21;10.43;;;8.33;;
16436;SDS011;8328;52.206;21.006;2022-09-09T07:14:47;10.23;;;8.70;;
16436;SDS011;8328;52.206;21.006;2022-09-09T07:17:13;11.97;;;8.80;;
16436;SDS011;8328;52.206;21.006;2022-09-09T07:19:39;11.13;;;10.03;;
16436;SDS011;8328;52.206;21.006;2022-09-09T07:22:05;10.37;;;8.60;;
16436;SDS011;8328;52.206;21.006;2022-09-09T07:24:31;9.47;;;8.47;;
16436;SDS011;8328;52.206;21.006;2022-09-09T07:26:57;11.47;;;9.70;;
16436;SDS011;8328;52.206;21.006;2022-09-09T07:29:24;11.13;;;8.57;;
16436;SDS011;8328;52.206;21.006;2022-09-09T07:31:50;13.20;;;10.33;;
16436;SDS011;8328;52.206;21.006;2022-09-09T07:34:16;9.23;;;8.10;;
16436;SDS011;8328;52.206;21.006;2022-09-09T07:36:43;14.10;;;11.83;;
16436;SDS011;8328;52.206;21.006;2022-09-09T07:39:10;13.87;;;11.37;;
16436;SDS011;8328;52.206;21.006;2022-09-09T07:41:47;11.33;;;8.97;;
16436;SDS011;8328;52.206;21.006;2022-09-09T07:44:15;11.60;;;8.83;;
16436;SDS011;8328;52.206;21.006;2022-09-09T07:46:43;10.07;;;8.43;;
16436;SDS011;8328;52.206;21.006;2022-09-09T07:49:10;10.00;;;8.77;;
16436;SDS011;8328;52.206;21.006;2022-09-09T07:51:37;9.23;;;8.23;;
16436;SDS011;8328;52.206;21.006;2022-09-09T07:54:06;9.00;;;8.10;;
16436;SDS011;8328;52.206;21.006;2022-09-09T07:56:37;9.73;;;8.73;;
16436;SDS011;8328;52.206;21.006;2022-09-09T07:59:04;9.77;;;8.60;;
16436;SDS011;8328;52.206;21.006;2022-09-09T08:01:35;8.97;;;7.90;;
16436;SDS011;8328;52.206;21.006;2022-09-09T08:04:08;9.20;;;8.23;;
16436;SDS011;8328;52.206;21.006;2022-09-09T08:06:46;10.53;;;8.63;;
16436;SDS011;8328;52.206;21.006;2022-09-09T08:09:20;9.63;;;7.90;;
16436;SDS011;8328;52.206;21.006;2022-09-09T08:11:50;14.50;;;8.07;;
16436;SDS011;8328;52.206;21.006;2022-09-09T08:14:17;11.27;;;9.10;;
16436;SDS011;8328;52.206;21.006;2022-09-09T08:16:44;9.53;;;8.53;;
16436;SDS011;8328;52.206;21.006;2022-09-09T08:19:11;8.60;;;7.70;;
16436;SDS011;8328;52.206;21.006;2022-09-09T08:21:38;10.67;;;9.50;;
16436;SDS011;8328;52.206;21.006;2022-09-09T08:24:05;12.50;;;8.93;;
16436;SDS011;8328;52.206;21.006;2022-09-09T08:26:36;12.77;;;9.70;;
16436;SDS011;8328;52.206;21.006;2022-09-09T08:29:03;10.90;;;8.83;;
16436;SDS011;8328;52.206;21.006;2022-09-09T08:31:54;10.50;;;8.80;;
16436;SDS011;8328;52.206;21.006;2022-09-09T08:34:22;13.37;;;9.77;;
16436;SDS011;8328;52.206;21.006;2022-09-09T08:36:52;12.13;;;9.80;;
16436;SDS011;8328;52.206;21.006;2022-09-09T08:39:19;13.20;;;9.93;;
16436;SDS011;8328;52.206;21.006;2022-09-09T08:41:55;13.13;;;10.00;;
16436;SDS011;8328;52.206;21.006;2022-09-09T08:52:28;13.53;;;10.57;;
16436;SDS011;8328;52.206;21.006;2022-09-09T08:55:41;12.10;;;10.80;;
16436;SDS011;8328;52.206;21.006;2022-09-09T08:57:49;15.20;;;11.43;;
16436;SDS011;8328;52.206;21.006;2022-09-09T09:00:17;15.90;;;11.07;;
16436;SDS011;8328;52.206;21.006;2022-09-09T09:05:47;12.47;;;11.17;;
16436;SDS011;8328;52.206;21.006;2022-09-09T09:08:32;12.17;;;10.60;;
16436;SDS011;8328;52.206;21.006;2022-09-09T09:11:06;12.70;;;10.30;;
16436;SDS011;8328;52.206;21.006;2022-09-09T09:16:13;17.27;;;11.57;;
16436;SDS011;8328;52.206;21.006;2022-09-09T09:18:47;15.77;;;11.40;;
16436;SDS011;8328;52.206;21.006;2022-09-09T09:21:15;15.20;;;11.13;;
16436;SDS011;8328;52.206;21.006;2022-09-09T09:24:00;14.63;;;11.13;;
16436;SDS011;8328;52.206;21.006;2022-09-09T09:26:33;15.93;;;10.47;;
16436;SDS011;8328;52.206;21.006;2022-09-09T09:29:23;15.87;;;11.50;;
16436;SDS011;8328;52.206;21.006;2022-09-09T09:31:51;14.90;;;11.87;;
16436;SDS011;8328;52.206;21.006;2022-09-09T09:34:21;13.53;;;11.30;;
16436;SDS011;8328;52.206;21.006;2022-09-09T09:36:55;15.10;;;11.97;;
16436;SDS011;8328;52.206;21.006;2022-09-09T09:39:25;16.80;;;11.80;;
16436;SDS011;8328;52.206;21.006;2022-09-09T09:41:53;16.43;;;11.87;;
16436;SDS011;8328;52.206;21.006;2022-09-09T09:44:23;15.27;;;12.63;;
16436;SDS011;8328;52.206;21.006;2022-09-09T09:47:04;18.30;;;13.50;;
16436;SDS011;8328;52.206;21.006;2022-09-09T09:49:32;14.77;;;12.47;;
16436;SDS011;8328;52.206;21.006;2022-09-09T09:52:02;18.53;;;15.30;;
16436;SDS011;8328;52.206;21.006;2022-09-09T09:54:29;18.43;;;13.67;;
16436;SDS011;8328;52.206;21.006;2022-09-09T09:57:12;17.70;;;13.27;;
16436;SDS011;8328;52.206;21.006;2022-09-09T09:59:41;16.80;;;13.20;;
16436;SDS011;8328;52.206;21.006;2022-09-09T10:05:00;16.17;;;12.63;;
16436;SDS011;8328;52.206;21.006;2022-09-09T10:07:28;19.43;;;13.90;;
16436;SDS011;8328;52.206;21.006;2022-09-09T10:09:55;18.37;;;13.87;;
16436;SDS011;8328;52.206;21.006;2022-09-09T10:20:45;17.97;;;13.73;;
16436;SDS011;8328;52.206;21.006;2022-09-09T10:48:58;26.97;;;17.20;;
16436;SDS011;8328;52.206;21.006;2022-09-09T10:57:16;22.77;;;16.40;;
16436;SDS011;8328;52.206;21.006;2022-09-09T10:59:58;23.57;;;17.73;;
16436;SDS011;8328;52.206;21.006;2022-09-09T11:02:31;22.37;;;17.93;;
16436;SDS011;8328;52.206;21.006;2022-09-09T11:08:21;25.63;;;18.27;;
16436;SDS011;8328;52.206;21.006;2022-09-09T11:13:39;25.43;;;18.83;;
16436;SDS011;8328;52.206;21.006;2022-09-09T11:19:16;27.67;;;18.97;;
16436;SDS011;8328;52.206;21.006;2022-09-09T11:22:22;25.13;;;19.63;;
16436;SDS011;8328;52.206;21.006;2022-09-09T11:25:08;27.90;;;19.67;;
16436;SDS011;8328;52.206;21.006;2022-09-09T11:39:13;28.07;;;19.90;;
16436;SDS011;8328;52.206;21.006;2022-09-09T11:44:37;25.67;;;19.03;;
16436;SDS011;8328;52.206;21.006;2022-09-09T11:47:03;27.57;;;19.40;;
16436;SDS011;8328;52.206;21.006;2022-09-09T11:49:41;26.97;;;20.30;;
16436;SDS011;8328;52.206;21.006;2022-09-09T11:55:09;28.27;;;20.63;;
16436;SDS011;8328;52.206;21.006;2022-09-09T11:57:37;30.17;;;20.23;;
16436;SDS011;8328;52.206;21.006;2022-09-09T12:00:04;30.67;;;21.37;;
16436;SDS011;8328;52.206;21.006;2022-09-09T12:02:31;27.37;;;20.07;;
16436;SDS011;8328;52.206;21.006;2022-09-09T12:05:09;32.13;;;23.20;;
16436;SDS011;8328;52.206;21.006;2022-09-09T12:07:40;25.93;;;20.83;;
16436;SDS011;8328;52.206;21.006;2022-09-09T12:12:46;27.30;;;20.60;;
16436;SDS011;8328;52.206;21.006;2022-09-09T12:23:05;33.03;;;22.73;;
16436;SDS011;8328;52.206;21.006;2022-09-09T12:26:07;32.03;;;23.47;;
16436;SDS011;8328;52.206;21.006;2022-09-09T12:31:31;32.63;;;23.60;;
16436;SDS011;8328;52.206;21.006;2022-09-09T12:34:11;35.03;;;23.60;;
16436;SDS011;8328;52.206;21.006;2022-09-09T12:36:55;35.20;;;23.73;;
16436;SDS011;8328;52.206;21.006;2022-09-09T12:41:56;36.97;;;24.80;;
16436;SDS011;8328;52.206;21.006;2022-09-09T12:44:23;32.87;;;23.10;;
16436;SDS011;8328;52.206;21.006;2022-09-09T12:46:50;33.97;;;23.70;;
16436;SDS011;8328;52.206;21.006;2022-09-09T12:52:01;33.97;;;23.93;;
16436;SDS011;8328;52.206;21.006;2022-09-09T12:54:30;31.53;;;23.27;;
16436;SDS011;8328;52.206;21.006;2022-09-09T12:56:58;34.27;;;24.83;;
16436;SDS011;8328;52.206;21.006;2022-09-09T12:59:25;31.67;;;22.70;;
16436;SDS011;8328;52.206;21.006;2022-09-09T13:01:59;32.17;;;23.47;;
16436;SDS011;8328;52.206;21.006;2022-09-09T13:04:25;33.17;;;22.57;;
16436;SDS011;8328;52.206;21.006;2022-09-09T13:06:51;30.97;;;22.97;;
16436;SDS011;8328;52.206;21.006;2022-09-09T13:09:17;34.40;;;23.53;;
16436;SDS011;8328;52.206;21.006;2022-09-09T13:11:51;35.57;;;23.47;;
16436;SDS011;8328;52.206;21.006;2022-09-09T13:14:31;33.50;;;24.17;;
16436;SDS011;8328;52.206;21.006;2022-09-09T13:17:03;35.30;;;23.23;;
16436;SDS011;8328;52.206;21.006;2022-09-09T13:19:36;34.73;;;24.13;;
16436;SDS011;8328;52.206;21.006;2022-09-09T13:25:21;34.60;;;23.10;;
16436;SDS011;8328;52.206;21.006;2022-09-09T13:27:57;33.53;;;23.87;;
16436;SDS011;8328;52.206;21.006;2022-09-09T13:30:31;39.13;;;24.53;;
16436;SDS011;8328;52.206;21.006;2022-09-09T13:35:29;38.10;;;24.40;;
16436;SDS011;8328;52.206;21.006;2022-09-09T13:37:55;35.63;;;23.47;;
16436;SDS011;8328;52.206;21.006;2022-09-09T13:40:23;35.63;;;23.90;;
16436;SDS011;8328;52.206;21.006;2022-09-09T13:42:56;34.63;;;23.10;;
16436;SDS011;8328;52.206;21.006;2022-09-09T13:45:24;40.10;;;24.43;;
16436;SDS011;8328;52.206;21.006;2022-09-09T13:47:54;39.00;;;23.23;;
16436;SDS011;8328;52.206;21.006;2022-09-09T13:52:50;40.03;;;24.43;;
16436;SDS011;8328;52.206;21.006;2022-09-09T13:55:21;37.47;;;22.63;;
16436;SDS011;8328;52.206;21.006;2022-09-09T14:00:18;40.40;;;24.20;;
16436;SDS011;8328;52.206;21.006;2022-09-09T14:02:45;41.50;;;24.30;;
16436;SDS011;8328;52.206;21.006;2022-09-09T14:05:11;38.10;;;23.00;;
16436;SDS011;8328;52.206;21.006;2022-09-09T14:07:37;34.50;;;22.10;;
16436;SDS011;8328;52.206;21.006;2022-09-09T14:10:05;36.20;;;22.23;;
16436;SDS011;8328;52.206;21.006;2022-09-09T14:12:32;35.57;;;22.00;;
16436;SDS011;8328;52.206;21.006;2022-09-09T14:14:58;39.10;;;24.50;;
16436;SDS011;8328;52.206;21.006;2022-09-09T14:17:25;35.67;;;22.47;;
16436;SDS011;8328;52.206;21.006;2022-09-09T14:19:55;39.40;;;24.53;;
16436;SDS011;8328;52.206;21.006;2022-09-09T14:22:21;38.27;;;22.27;;
16436;SDS011;8328;52.206;21.006;2022-09-09T14:24:48;38.40;;;22.27;;
16436;SDS011;8328;52.206;21.006;2022-09-09T14:27:14;38.77;;;23.43;;
16436;SDS011;8328;52.206;21.006;2022-09-09T14:29:40;36.77;;;21.53;;
16436;SDS011;8328;52.206;21.006;2022-09-09T14:32:08;36.53;;;24.47;;
16436;SDS011;8328;52.206;21.006;2022-09-09T14:34:34;35.73;;;22.13;;
16436;SDS011;8328;52.206;21.006;2022-09-09T14:37:00;35.47;;;22.27;;
16436;SDS011;8328;52.206;21.006;2022-09-09T14:39:26;34.67;;;21.37;;
16436;SDS011;8328;52.206;21.006;2022-09-09T14:41:51;37.93;;;23.50;;
16436;SDS011;8328;52.206;21.006;2022-09-09T14:44:17;35.67;;;21.43;;
16436;SDS011;8328;52.206;21.006;2022-09-09T14:46:43;34.83;;;22.60;;
16436;SDS011;8328;52.206;21.006;2022-09-09T14:49:09;38.47;;;23.20;;
16436;SDS011;8328;52.206;21.006;2022-09-09T14:51:36;35.77;;;23.23;;
16436;SDS011;8328;52.206;21.006;2022-09-09T14:54:02;35.00;;;22.47;;
16436;SDS011;8328;52.206;21.006;2022-09-09T14:56:30;37.37;;;23.13;;
16436;SDS011;8328;52.206;21.006;2022-09-09T14:59:00;35.90;;;21.87;;
16436;SDS011;8328;52.206;21.006;2022-09-09T15:01:27;36.00;;;23.63;;
16436;SDS011;8328;52.206;21.006;2022-09-09T15:04:03;36.40;;;22.43;;
16436;SDS011;8328;52.206;21.006;2022-09-09T15:06:30;35.20;;;23.93;;
16436;SDS011;8328;52.206;21.006;2022-09-09T15:08:58;36.33;;;23.87;;
16436;SDS011;8328;52.206;21.006;2022-09-09T15:11:26;36.37;;;23.20;;
16436;SDS011;8328;52.206;21.006;2022-09-09T15:13:53;38.53;;;24.43;;
16436;SDS011;8328;52.206;21.006;2022-09-09T15:16:20;39.43;;;25.37;;
16436;SDS011;8328;52.206;21.006;2022-09-09T15:18:52;39.97;;;24.93;;
16436;SDS011;8328;52.206;21.006;2022-09-09T15:21:19;33.77;;;22.83;;
16436;SDS011;8328;52.206;21.006;2022-09-09T15:23:47;35.60;;;26.37;;
16436;SDS011;8328;52.206;21.006;2022-09-09T15:26:14;34.67;;;24.10;;
16436;SDS011;8328;52.206;21.006;2022-09-09T15:28:41;40.23;;;26.37;;
16436;SDS011;8328;52.206;21.006;2022-09-09T15:31:15;36.33;;;24.20;;
16436;SDS011;8328;52.206;21.006;2022-09-09T15:33:46;38.90;;;23.83;;
16436;SDS011;8328;52.206;21.006;2022-09-09T15:38:43;36.07;;;25.13;;
16436;SDS011;8328;52.206;21.006;2022-09-09T15:41:10;34.23;;;24.03;;
16436;SDS011;8328;52.206;21.006;2022-09-09T15:43:36;33.47;;;23.17;;
16436;SDS011;8328;52.206;21.006;2022-09-09T15:46:09;34.77;;;23.80;;
16436;SDS011;8328;52.206;21.006;2022-09-09T15:49:16;34.30;;;24.30;;
16436;SDS011;8328;52.206;21.006;2022-09-09T15:51:44;36.07;;;24.53;;
16436;SDS011;8328;52.206;21.006;2022-09-09T15:54:13;36.70;;;23.63;;
16436;SDS011;8328;52.206;21.006;2022-09-09T15:56:41;35.43;;;24.13;;
16436;SDS011;8328;52.206;21.006;2022-09-09T15:59:07;38.67;;;23.83;;
16436;SDS011;8328;52.206;21.006;2022-09-09T16:01:34;32.87;;;23.77;;
16436;SDS011;8328;52.206;21.006;2022-09-09T16:04:00;33.43;;;23.13;;
16436;SDS011;8328;52.206;21.006;2022-09-09T16:06:27;36.00;;;23.60;;
16436;SDS011;8328;52.206;21.006;2022-09-09T16:08:54;32.60;;;22.67;;
16436;SDS011;8328;52.206;21.006;2022-09-09T16:11:22;31.73;;;22.23;;
16436;SDS011;8328;52.206;21.006;2022-09-09T16:13:54;29.00;;;22.13;;
16436;SDS011;8328;52.206;21.006;2022-09-09T16:16:23;39.30;;;27.20;;
16436;SDS011;8328;52.206;21.006;2022-09-09T16:18:56;33.20;;;22.40;;
16436;SDS011;8328;52.206;21.006;2022-09-09T16:21:24;34.17;;;24.63;;
16436;SDS011;8328;52.206;21.006;2022-09-09T16:23:55;31.80;;;22.30;;
16436;SDS011;8328;52.206;21.006;2022-09-09T16:26:22;28.97;;;21.77;;
16436;SDS011;8328;52.206;21.006;2022-09-09T16:28:49;32.70;;;22.70;;
16436;SDS011;8328;52.206;21.006;2022-09-09T16:31:19;34.20;;;22.53;;
16436;SDS011;8328;52.206;21.006;2022-09-09T16:33:47;34.87;;;23.70;;
16436;SDS011;8328;52.206;21.006;2022-09-09T16:36:20;31.53;;;22.83;;
16436;SDS011;8328;52.206;21.006;2022-09-09T16:38:54;31.70;;;22.20;;
16436;SDS011;8328;52.206;21.006;2022-09-09T16:41:21;37.47;;;22.83;;
16436;SDS011;8328;52.206;21.006;2022-09-09T16:43:47;30.87;;;22.13;;
16436;SDS011;8328;52.206;21.006;2022-09-09T16:46:21;32.93;;;23.77;;
16436;SDS011;8328;52.206;21.006;2022-09-09T16:48:47;36.70;;;23.73;;
16436;SDS011;8328;52.206;21.006;2022-09-09T16:53:44;33.00;;;22.10;;
16436;SDS011;8328;52.206;21.006;2022-09-09T16:56:20;34.07;;;22.20;;
16436;SDS011;8328;52.206;21.006;2022-09-09T16:58:53;28.80;;;20.93;;
16436;SDS011;8328;52.206;21.006;2022-09-09T17:01:24;29.53;;;21.37;;
16436;SDS011;8328;52.206;21.006;2022-09-09T17:03:53;30.23;;;21.40;;
16436;SDS011;8328;52.206;21.006;2022-09-09T17:06:20;29.00;;;21.97;;
16436;SDS011;8328;52.206;21.006;2022-09-09T17:08:47;29.93;;;21.63;;
16436;SDS011;8328;52.206;21.006;2022-09-09T17:11:14;32.70;;;22.13;;
16436;SDS011;8328;52.206;21.006;2022-09-09T17:13:42;29.53;;;21.47;;
16436;SDS011;8328;52.206;21.006;2022-09-09T17:16:08;30.00;;;21.20;;
16436;SDS011;8328;52.206;21.006;2022-09-09T17:18:35;31.90;;;21.87;;
16436;SDS011;8328;52.206;21.006;2022-09-09T17:21:02;30.27;;;21.67;;
16436;SDS011;8328;52.206;21.006;2022-09-09T17:23:29;31.57;;;21.67;;
16436;SDS011;8328;52.206;21.006;2022-09-09T17:25:56;35.57;;;22.57;;